sensor_id;sensor_type;location;lat;lon;timestamp;P1;durP1;ratioP1;P2;durP2;ratioP2
23561;SDS011;11959;49.418;8.728;2023-02-12T00:02:05;16.73;;;10.02;;
23561;SDS011;11959;49.418;8.728;2023-02-12T00:04:31;17.02;;;9.13;;
23561;SDS011;11959;49.418;8.728;2023-02-12T00:06:57;18.92;;;9.65;;
23561;SDS011;11959;49.418;8.728;2023-02-12T00:09:23;16.95;;;10.05;;
23561;SDS011;11959;49.418;8.728;2023-02-12T00:11:49;17.92;;;10.98;;
23561;SDS011;11959;49.418;8.728;2023-02-12T00:14:15;20.60;;;11.98;;
23561;SDS011;11959;49.418;8.728;2023-02-12T00:16:40;19.10;;;10.95;;
23561;SDS011;11959;49.418;8.728;2023-02-12T00:19:06;20.70;;;12.85;;
23561;SDS011;11959;49.418;8.728;2023-02-12T00:21:33;21.35;;;12.48;;
23561;SDS011;11959;49.418;8.728;2023-02-12T00:23:59;19.38;;;11.75;;
23561;SDS011;11959;49.418;8.728;2023-02-12T00:26:25;22.00;;;13.63;;
23561;SDS011;11959;49.418;8.728;2023-02-12T00:28:51;20.30;;;11.65;;
23561;SDS011;11959;49.418;8.728;2023-02-12T00:31:18;18.88;;;11.75;;
23561;SDS011;11959;49.418;8.728;2023-02-12T00:33:46;24.02;;;14.60;;
23561;SDS011;11959;49.418;8.728;2023-02-12T00:36:19;21.02;;;13.57;;
23561;SDS011;11959;49.418;8.728;2023-02-12T00:38:47;18.75;;;12.80;;
23561;SDS011;11959;49.418;8.728;2023-02-12T00:41:13;26.63;;;15.55;;
23561;SDS011;11959;49.418;8.728;2023-02-12T00:43:39;25.63;;;16.45;;
23561;SDS011;11959;49.418;8.728;2023-02-12T00:46:05;25.42;;;15.38;;
23561;SDS011;11959;49.418;8.728;2023-02-12T00:48:31;24.30;;;15.18;;
23561;SDS011;11959;49.418;8.728;2023-02-12T00:50:57;22.98;;;14.13;;
23561;SDS011;11959;49.418;8.728;2023-02-12T00:53:23;21.90;;;13.82;;
23561;SDS011;11959;49.418;8.728;2023-02-12T00:55:49;21.30;;;12.52;;
23561;SDS011;11959;49.418;8.728;2023-02-12T00:58:15;19.70;;;12.98;;
23561;SDS011;11959;49.418;8.728;2023-02-12T01:00:41;21.55;;;12.93;;
23561;SDS011;11959;49.418;8.728;2023-02-12T01:03:07;20.17;;;13.65;;
23561;SDS011;11959;49.418;8.728;2023-02-12T01:05:33;24.70;;;14.68;;
23561;SDS011;11959;49.418;8.728;2023-02-12T01:07:58;24.52;;;14.98;;
23561;SDS011;11959;49.418;8.728;2023-02-12T01:10:24;23.58;;;15.23;;
23561;SDS011;11959;49.418;8.728;2023-02-12T01:12:50;24.60;;;16.45;;
23561;SDS011;11959;49.418;8.728;2023-02-12T01:15:16;27.63;;;16.23;;
23561;SDS011;11959;49.418;8.728;2023-02-12T01:17:42;27.25;;;15.68;;
23561;SDS011;11959;49.418;8.728;2023-02-12T01:20:10;24.27;;;15.27;;
23561;SDS011;11959;49.418;8.728;2023-02-12T01:22:37;23.85;;;14.80;;
23561;SDS011;11959;49.418;8.728;2023-02-12T01:25:04;21.95;;;14.38;;
23561;SDS011;11959;49.418;8.728;2023-02-12T01:27:30;22.65;;;14.25;;
23561;SDS011;11959;49.418;8.728;2023-02-12T01:29:56;23.67;;;14.73;;
23561;SDS011;11959;49.418;8.728;2023-02-12T01:32:22;25.58;;;15.70;;
23561;SDS011;11959;49.418;8.728;2023-02-12T01:34:47;25.27;;;15.07;;
23561;SDS011;11959;49.418;8.728;2023-02-12T01:37:13;23.65;;;14.70;;
23561;SDS011;11959;49.418;8.728;2023-02-12T01:39:39;25.30;;;15.82;;
23561;SDS011;11959;49.418;8.728;2023-02-12T01:42:04;24.00;;;15.27;;
23561;SDS011;11959;49.418;8.728;2023-02-12T01:44:33;27.13;;;16.38;;
23561;SDS011;11959;49.418;8.728;2023-02-12T01:47:01;23.73;;;14.43;;
23561;SDS011;11959;49.418;8.728;2023-02-12T01:49:35;25.38;;;15.73;;
23561;SDS011;11959;49.418;8.728;2023-02-12T01:52:12;24.95;;;15.68;;
23561;SDS011;11959;49.418;8.728;2023-02-12T01:54:47;18.45;;;12.10;;
23561;SDS011;11959;49.418;8.728;2023-02-12T01:57:15;25.10;;;15.48;;
23561;SDS011;11959;49.418;8.728;2023-02-12T01:59:42;23.95;;;15.80;;
23561;SDS011;11959;49.418;8.728;2023-02-12T02:02:09;24.15;;;15.50;;
23561;SDS011;11959;49.418;8.728;2023-02-12T02:04:39;24.00;;;15.60;;
23561;SDS011;11959;49.418;8.728;2023-02-12T02:07:09;26.70;;;16.10;;
23561;SDS011;11959;49.418;8.728;2023-02-12T02:09:36;22.77;;;14.57;;
23561;SDS011;11959;49.418;8.728;2023-02-12T02:12:03;23.70;;;15.50;;
23561;SDS011;11959;49.418;8.728;2023-02-12T02:14:49;21.52;;;15.25;;
23561;SDS011;11959;49.418;8.728;2023-02-12T02:36:46;24.25;;;13.88;;
23561;SDS011;11959;49.418;8.728;2023-02-12T02:47:14;23.05;;;14.60;;
23561;SDS011;11959;49.418;8.728;2023-02-12T02:49:44;23.13;;;13.90;;
23561;SDS011;11959;49.418;8.728;2023-02-12T02:52:21;21.40;;;14.13;;
23561;SDS011;11959;49.418;8.728;2023-02-12T02:54:53;21.10;;;13.00;;
23561;SDS011;11959;49.418;8.728;2023-02-12T02:57:27;21.88;;;14.32;;
23561;SDS011;11959;49.418;8.728;2023-02-12T03:02:40;21.17;;;14.38;;
23561;SDS011;11959;49.418;8.728;2023-02-12T03:05:18;22.08;;;13.25;;
23561;SDS011;11959;49.418;8.728;2023-02-12T03:08:33;22.55;;;14.38;;
23561;SDS011;11959;49.418;8.728;2023-02-12T03:10:45;20.75;;;13.63;;
23561;SDS011;11959;49.418;8.728;2023-02-12T03:13:48;24.02;;;14.20;;
23561;SDS011;11959;49.418;8.728;2023-02-12T03:16:38;24.75;;;14.60;;
23561;SDS011;11959;49.418;8.728;2023-02-12T03:19:08;25.30;;;14.98;;
23561;SDS011;11959;49.418;8.728;2023-02-12T03:21:42;21.27;;;14.38;;
23561;SDS011;11959;49.418;8.728;2023-02-12T03:24:15;21.42;;;13.90;;
23561;SDS011;11959;49.418;8.728;2023-02-12T03:27:09;19.90;;;14.75;;
23561;SDS011;11959;49.418;8.728;2023-02-12T03:29:40;23.98;;;14.63;;
23561;SDS011;11959;49.418;8.728;2023-02-12T03:34:54;20.17;;;13.85;;
23561;SDS011;11959;49.418;8.728;2023-02-12T03:37:39;22.20;;;14.18;;
23561;SDS011;11959;49.418;8.728;2023-02-12T03:50:43;25.98;;;14.43;;
23561;SDS011;11959;49.418;8.728;2023-02-12T03:53:29;19.48;;;13.25;;
23561;SDS011;11959;49.418;8.728;2023-02-12T03:56:01;23.42;;;14.68;;
23561;SDS011;11959;49.418;8.728;2023-02-12T03:58:41;22.33;;;14.20;;
23561;SDS011;11959;49.418;8.728;2023-02-12T04:01:09;21.95;;;14.18;;
23561;SDS011;11959;49.418;8.728;2023-02-12T04:03:36;22.00;;;14.05;;
23561;SDS011;11959;49.418;8.728;2023-02-12T04:06:02;22.92;;;14.13;;
23561;SDS011;11959;49.418;8.728;2023-02-12T04:08:28;22.10;;;14.43;;
23561;SDS011;11959;49.418;8.728;2023-02-12T04:11:00;21.33;;;14.15;;
23561;SDS011;11959;49.418;8.728;2023-02-12T04:16:32;23.30;;;14.38;;
23561;SDS011;11959;49.418;8.728;2023-02-12T04:19:04;20.67;;;12.85;;
23561;SDS011;11959;49.418;8.728;2023-02-12T04:24:18;23.45;;;14.85;;
23561;SDS011;11959;49.418;8.728;2023-02-12T04:32:24;23.42;;;14.48;;
23561;SDS011;11959;49.418;8.728;2023-02-12T04:40:07;24.27;;;14.13;;
23561;SDS011;11959;49.418;8.728;2023-02-12T04:42:48;22.70;;;14.07;;
23561;SDS011;11959;49.418;8.728;2023-02-12T04:45:20;23.45;;;13.55;;
23561;SDS011;11959;49.418;8.728;2023-02-12T04:47:49;22.63;;;14.23;;
23561;SDS011;11959;49.418;8.728;2023-02-12T04:50:14;20.42;;;13.65;;
23561;SDS011;11959;49.418;8.728;2023-02-12T04:52:40;20.17;;;14.25;;
23561;SDS011;11959;49.418;8.728;2023-02-12T04:55:06;21.40;;;13.73;;
23561;SDS011;11959;49.418;8.728;2023-02-12T04:57:32;23.75;;;14.57;;
23561;SDS011;11959;49.418;8.728;2023-02-12T04:59:57;20.63;;;13.32;;
23561;SDS011;11959;49.418;8.728;2023-02-12T05:02:23;21.90;;;14.15;;
23561;SDS011;11959;49.418;8.728;2023-02-12T05:04:49;24.73;;;14.48;;
23561;SDS011;11959;49.418;8.728;2023-02-12T05:07:14;21.08;;;13.15;;
23561;SDS011;11959;49.418;8.728;2023-02-12T05:09:40;22.15;;;13.70;;
23561;SDS011;11959;49.418;8.728;2023-02-12T05:12:06;20.75;;;13.57;;
23561;SDS011;11959;49.418;8.728;2023-02-12T05:14:32;21.65;;;13.93;;
23561;SDS011;11959;49.418;8.728;2023-02-12T05:16:58;20.73;;;13.65;;
23561;SDS011;11959;49.418;8.728;2023-02-12T05:19:23;22.65;;;14.65;;
23561;SDS011;11959;49.418;8.728;2023-02-12T05:21:49;22.65;;;14.43;;
23561;SDS011;11959;49.418;8.728;2023-02-12T05:24:15;21.63;;;14.25;;
23561;SDS011;11959;49.418;8.728;2023-02-12T05:26:41;22.90;;;13.75;;
23561;SDS011;11959;49.418;8.728;2023-02-12T05:29:07;23.83;;;15.27;;
23561;SDS011;11959;49.418;8.728;2023-02-12T05:31:33;21.48;;;14.20;;
23561;SDS011;11959;49.418;8.728;2023-02-12T05:33:58;24.75;;;15.00;;
23561;SDS011;11959;49.418;8.728;2023-02-12T05:36:24;23.67;;;14.13;;
23561;SDS011;11959;49.418;8.728;2023-02-12T05:38:50;20.60;;;13.90;;
23561;SDS011;11959;49.418;8.728;2023-02-12T05:41:18;20.75;;;12.95;;
23561;SDS011;11959;49.418;8.728;2023-02-12T05:43:46;24.85;;;14.65;;
23561;SDS011;11959;49.418;8.728;2023-02-12T05:46:13;24.20;;;14.07;;
23561;SDS011;11959;49.418;8.728;2023-02-12T05:48:39;20.52;;;12.93;;
23561;SDS011;11959;49.418;8.728;2023-02-12T05:51:06;21.30;;;13.00;;
23561;SDS011;11959;49.418;8.728;2023-02-12T05:53:37;19.40;;;12.98;;
23561;SDS011;11959;49.418;8.728;2023-02-12T05:58:44;21.10;;;13.70;;
23561;SDS011;11959;49.418;8.728;2023-02-12T06:01:13;22.40;;;13.38;;
23561;SDS011;11959;49.418;8.728;2023-02-12T06:03:41;22.60;;;13.68;;
23561;SDS011;11959;49.418;8.728;2023-02-12T06:06:07;21.73;;;13.98;;
23561;SDS011;11959;49.418;8.728;2023-02-12T06:08:33;23.33;;;14.65;;
23561;SDS011;11959;49.418;8.728;2023-02-12T06:11:03;20.58;;;13.95;;
23561;SDS011;11959;49.418;8.728;2023-02-12T06:13:34;19.30;;;12.48;;
23561;SDS011;11959;49.418;8.728;2023-02-12T06:16:00;22.08;;;13.38;;
23561;SDS011;11959;49.418;8.728;2023-02-12T06:18:26;22.10;;;13.60;;
23561;SDS011;11959;49.418;8.728;2023-02-12T06:20:52;20.63;;;13.73;;
23561;SDS011;11959;49.418;8.728;2023-02-12T06:23:22;22.02;;;13.90;;
23561;SDS011;11959;49.418;8.728;2023-02-12T06:25:49;21.27;;;14.00;;
23561;SDS011;11959;49.418;8.728;2023-02-12T06:28:15;22.25;;;13.57;;
23561;SDS011;11959;49.418;8.728;2023-02-12T06:30:42;20.33;;;12.40;;
23561;SDS011;11959;49.418;8.728;2023-02-12T06:33:07;25.65;;;13.90;;
23561;SDS011;11959;49.418;8.728;2023-02-12T06:35:33;19.63;;;13.07;;
23561;SDS011;11959;49.418;8.728;2023-02-12T06:38:00;24.05;;;13.48;;
23561;SDS011;11959;49.418;8.728;2023-02-12T06:40:26;19.33;;;12.23;;
23561;SDS011;11959;49.418;8.728;2023-02-12T06:42:52;20.30;;;12.07;;
23561;SDS011;11959;49.418;8.728;2023-02-12T06:45:18;22.10;;;13.70;;
23561;SDS011;11959;49.418;8.728;2023-02-12T06:47:43;20.95;;;13.18;;
23561;SDS011;11959;49.418;8.728;2023-02-12T06:50:09;21.88;;;13.45;;
23561;SDS011;11959;49.418;8.728;2023-02-12T06:52:35;22.30;;;13.82;;
23561;SDS011;11959;49.418;8.728;2023-02-12T06:55:00;21.55;;;13.60;;
23561;SDS011;11959;49.418;8.728;2023-02-12T06:57:27;21.27;;;12.93;;
23561;SDS011;11959;49.418;8.728;2023-02-12T06:59:53;22.75;;;13.93;;
23561;SDS011;11959;49.418;8.728;2023-02-12T07:02:19;28.30;;;15.55;;
23561;SDS011;11959;49.418;8.728;2023-02-12T07:04:45;23.00;;;14.30;;
23561;SDS011;11959;49.418;8.728;2023-02-12T07:07:10;43.63;;;22.13;;
23561;SDS011;11959;49.418;8.728;2023-02-12T07:09:36;27.15;;;16.08;;
23561;SDS011;11959;49.418;8.728;2023-02-12T07:12:02;26.60;;;14.40;;
23561;SDS011;11959;49.418;8.728;2023-02-12T07:14:28;24.70;;;14.20;;
23561;SDS011;11959;49.418;8.728;2023-02-12T07:16:54;25.85;;;15.27;;
23561;SDS011;11959;49.418;8.728;2023-02-12T07:19:20;23.75;;;14.60;;
23561;SDS011;11959;49.418;8.728;2023-02-12T07:21:46;27.98;;;16.80;;
23561;SDS011;11959;49.418;8.728;2023-02-12T07:24:12;24.52;;;14.50;;
23561;SDS011;11959;49.418;8.728;2023-02-12T07:26:40;20.95;;;13.68;;
23561;SDS011;11959;49.418;8.728;2023-02-12T07:29:06;24.45;;;13.68;;
23561;SDS011;11959;49.418;8.728;2023-02-12T07:31:32;27.95;;;15.15;;
23561;SDS011;11959;49.418;8.728;2023-02-12T07:33:58;22.60;;;14.05;;
23561;SDS011;11959;49.418;8.728;2023-02-12T07:36:25;21.65;;;13.80;;
23561;SDS011;11959;49.418;8.728;2023-02-12T07:38:53;21.67;;;13.20;;
23561;SDS011;11959;49.418;8.728;2023-02-12T07:41:22;22.05;;;14.07;;
23561;SDS011;11959;49.418;8.728;2023-02-12T07:43:52;20.63;;;12.85;;
23561;SDS011;11959;49.418;8.728;2023-02-12T07:46:24;22.55;;;12.55;;
23561;SDS011;11959;49.418;8.728;2023-02-12T07:48:55;22.38;;;13.20;;
23561;SDS011;11959;49.418;8.728;2023-02-12T07:51:26;21.58;;;12.57;;
23561;SDS011;11959;49.418;8.728;2023-02-12T07:53:52;21.30;;;13.15;;
23561;SDS011;11959;49.418;8.728;2023-02-12T07:56:20;21.67;;;13.57;;
23561;SDS011;11959;49.418;8.728;2023-02-12T07:58:48;22.48;;;12.60;;
23561;SDS011;11959;49.418;8.728;2023-02-12T08:03:45;16.83;;;11.98;;
23561;SDS011;11959;49.418;8.728;2023-02-12T08:06:15;20.58;;;12.52;;
23561;SDS011;11959;49.418;8.728;2023-02-12T08:08:45;24.60;;;12.82;;
23561;SDS011;11959;49.418;8.728;2023-02-12T08:11:11;19.50;;;12.85;;
23561;SDS011;11959;49.418;8.728;2023-02-12T08:13:38;16.85;;;11.25;;
23561;SDS011;11959;49.418;8.728;2023-02-12T08:16:05;18.88;;;12.00;;
23561;SDS011;11959;49.418;8.728;2023-02-12T08:18:33;19.55;;;12.23;;
23561;SDS011;11959;49.418;8.728;2023-02-12T08:21:03;18.08;;;11.63;;
23561;SDS011;11959;49.418;8.728;2023-02-12T08:23:30;20.83;;;12.68;;
23561;SDS011;11959;49.418;8.728;2023-02-12T08:28:35;20.60;;;13.02;;
23561;SDS011;11959;49.418;8.728;2023-02-12T08:31:03;22.13;;;12.88;;
23561;SDS011;11959;49.418;8.728;2023-02-12T08:33:30;19.33;;;12.70;;
23561;SDS011;11959;49.418;8.728;2023-02-12T08:36:03;19.75;;;11.95;;
23561;SDS011;11959;49.418;8.728;2023-02-12T08:38:31;18.80;;;12.50;;
23561;SDS011;11959;49.418;8.728;2023-02-12T08:41:08;19.30;;;13.18;;
23561;SDS011;11959;49.418;8.728;2023-02-12T08:43:35;19.55;;;12.52;;
23561;SDS011;11959;49.418;8.728;2023-02-12T08:46:03;19.95;;;12.30;;
23561;SDS011;11959;49.418;8.728;2023-02-12T08:48:34;18.95;;;11.95;;
23561;SDS011;11959;49.418;8.728;2023-02-12T08:51:07;22.67;;;12.30;;
23561;SDS011;11959;49.418;8.728;2023-02-12T08:53:42;21.00;;;12.27;;
23561;SDS011;11959;49.418;8.728;2023-02-12T08:56:10;20.95;;;12.93;;
23561;SDS011;11959;49.418;8.728;2023-02-12T08:58:36;21.05;;;11.98;;
23561;SDS011;11959;49.418;8.728;2023-02-12T09:01:02;19.55;;;11.80;;
23561;SDS011;11959;49.418;8.728;2023-02-12T09:03:29;18.98;;;12.35;;
23561;SDS011;11959;49.418;8.728;2023-02-12T09:05:55;21.13;;;12.65;;
23561;SDS011;11959;49.418;8.728;2023-02-12T09:08:21;21.73;;;12.40;;
23561;SDS011;11959;49.418;8.728;2023-02-12T09:10:47;20.45;;;12.50;;
23561;SDS011;11959;49.418;8.728;2023-02-12T09:13:12;20.45;;;12.63;;
23561;SDS011;11959;49.418;8.728;2023-02-12T09:15:40;20.98;;;12.43;;
23561;SDS011;11959;49.418;8.728;2023-02-12T09:18:08;19.85;;;11.90;;
23561;SDS011;11959;49.418;8.728;2023-02-12T09:20:37;20.88;;;12.35;;
23561;SDS011;11959;49.418;8.728;2023-02-12T09:23:05;20.40;;;12.52;;
23561;SDS011;11959;49.418;8.728;2023-02-12T09:25:32;21.33;;;12.63;;
23561;SDS011;11959;49.418;8.728;2023-02-12T09:27:59;22.98;;;12.50;;
23561;SDS011;11959;49.418;8.728;2023-02-12T09:30:26;19.38;;;12.73;;
23561;SDS011;11959;49.418;8.728;2023-02-12T09:32:51;19.30;;;12.18;;
23561;SDS011;11959;49.418;8.728;2023-02-12T09:35:17;20.30;;;12.25;;
23561;SDS011;11959;49.418;8.728;2023-02-12T09:37:43;22.00;;;12.57;;
23561;SDS011;11959;49.418;8.728;2023-02-12T09:40:20;22.30;;;13.05;;
23561;SDS011;11959;49.418;8.728;2023-02-12T09:42:58;22.98;;;13.55;;
23561;SDS011;11959;49.418;8.728;2023-02-12T09:45:26;17.30;;;11.55;;
23561;SDS011;11959;49.418;8.728;2023-02-12T09:48:04;24.33;;;14.05;;
23561;SDS011;11959;49.418;8.728;2023-02-12T09:50:58;20.70;;;12.88;;
23561;SDS011;11959;49.418;8.728;2023-02-12T09:53:28;19.35;;;12.18;;
23561;SDS011;11959;49.418;8.728;2023-02-12T09:55:55;21.90;;;12.45;;
23561;SDS011;11959;49.418;8.728;2023-02-12T10:01:13;22.27;;;12.80;;
23561;SDS011;11959;49.418;8.728;2023-02-12T10:03:41;18.58;;;11.95;;
23561;SDS011;11959;49.418;8.728;2023-02-12T10:06:10;19.75;;;12.07;;
23561;SDS011;11959;49.418;8.728;2023-02-12T10:08:45;21.08;;;12.35;;
23561;SDS011;11959;49.418;8.728;2023-02-12T10:11:35;20.55;;;12.60;;
23561;SDS011;11959;49.418;8.728;2023-02-12T10:17:41;21.55;;;12.60;;
23561;SDS011;11959;49.418;8.728;2023-02-12T10:20:20;22.05;;;13.07;;
23561;SDS011;11959;49.418;8.728;2023-02-12T10:25:45;23.17;;;13.75;;
23561;SDS011;11959;49.418;8.728;2023-02-12T10:28:16;23.10;;;12.57;;
23561;SDS011;11959;49.418;8.728;2023-02-12T10:30:50;25.45;;;14.38;;
23561;SDS011;11959;49.418;8.728;2023-02-12T10:36:13;23.60;;;13.73;;
23561;SDS011;11959;49.418;8.728;2023-02-12T10:39:02;20.63;;;12.95;;
23561;SDS011;11959;49.418;8.728;2023-02-12T10:41:48;23.58;;;14.07;;
23561;SDS011;11959;49.418;8.728;2023-02-12T10:44:18;21.63;;;13.00;;
23561;SDS011;11959;49.418;8.728;2023-02-12T10:46:43;20.33;;;12.63;;
23561;SDS011;11959;49.418;8.728;2023-02-12T10:49:10;24.33;;;13.02;;
23561;SDS011;11959;49.418;8.728;2023-02-12T10:55:05;21.55;;;13.52;;
23561;SDS011;11959;49.418;8.728;2023-02-12T10:57:14;21.08;;;12.85;;
23561;SDS011;11959;49.418;8.728;2023-02-12T10:59:48;20.00;;;11.95;;
23561;SDS011;11959;49.418;8.728;2023-02-12T11:02:20;16.77;;;11.60;;
23561;SDS011;11959;49.418;8.728;2023-02-12T11:04:49;17.90;;;10.98;;
23561;SDS011;11959;49.418;8.728;2023-02-12T11:07:17;18.88;;;11.85;;
23561;SDS011;11959;49.418;8.728;2023-02-12T11:09:43;15.55;;;9.98;;
23561;SDS011;11959;49.418;8.728;2023-02-12T11:18:07;11.65;;;6.50;;
23561;SDS011;11959;49.418;8.728;2023-02-12T11:23:04;6.40;;;3.45;;
23561;SDS011;11959;49.418;8.728;2023-02-12T11:25:32;5.00;;;3.00;;
23561;SDS011;11959;49.418;8.728;2023-02-12T11:28:00;7.38;;;3.15;;
23561;SDS011;11959;49.418;8.728;2023-02-12T11:30:26;4.38;;;2.50;;
23561;SDS011;11959;49.418;8.728;2023-02-12T11:32:52;4.30;;;2.58;;
23561;SDS011;11959;49.418;8.728;2023-02-12T11:35:23;4.22;;;2.88;;
23561;SDS011;11959;49.418;8.728;2023-02-12T11:37:57;4.65;;;2.63;;
23561;SDS011;11959;49.418;8.728;2023-02-12T11:40:27;5.32;;;3.17;;
23561;SDS011;11959;49.418;8.728;2023-02-12T11:42:59;5.55;;;3.22;;
23561;SDS011;11959;49.418;8.728;2023-02-12T11:45:35;4.90;;;2.97;;
23561;SDS011;11959;49.418;8.728;2023-02-12T11:48:19;5.22;;;3.15;;
23561;SDS011;11959;49.418;8.728;2023-02-12T11:50:58;4.97;;;2.92;;
23561;SDS011;11959;49.418;8.728;2023-02-12T11:53:28;3.95;;;2.47;;
23561;SDS011;11959;49.418;8.728;2023-02-12T11:55:58;4.90;;;3.00;;
23561;SDS011;11959;49.418;8.728;2023-02-12T11:58:35;4.25;;;2.90;;
23561;SDS011;11959;49.418;8.728;2023-02-12T12:01:08;7.80;;;4.80;;
23561;SDS011;11959;49.418;8.728;2023-02-12T12:03:38;6.65;;;4.07;;
23561;SDS011;11959;49.418;8.728;2023-02-12T12:08:44;8.55;;;4.50;;
23561;SDS011;11959;49.418;8.728;2023-02-12T12:14:27;4.40;;;2.45;;
23561;SDS011;11959;49.418;8.728;2023-02-12T12:17:10;3.60;;;2.55;;
23561;SDS011;11959;49.418;8.728;2023-02-12T12:27:55;4.72;;;2.58;;
23561;SDS011;11959;49.418;8.728;2023-02-12T12:33:37;4.15;;;2.80;;
23561;SDS011;11959;49.418;8.728;2023-02-12T12:36:24;3.30;;;2.13;;
23561;SDS011;11959;49.418;8.728;2023-02-12T12:53:12;2.53;;;1.60;;
23561;SDS011;11959;49.418;8.728;2023-02-12T13:04:25;2.92;;;1.95;;
23561;SDS011;11959;49.418;8.728;2023-02-12T13:07:20;3.25;;;1.65;;
23561;SDS011;11959;49.418;8.728;2023-02-12T13:10:09;3.25;;;1.77;;
23561;SDS011;11959;49.418;8.728;2023-02-12T13:13:20;3.08;;;1.60;;
23561;SDS011;11959;49.418;8.728;2023-02-12T13:18:31;2.53;;;1.77;;
23561;SDS011;11959;49.418;8.728;2023-02-12T13:24:14;2.97;;;1.77;;
23561;SDS011;11959;49.418;8.728;2023-02-12T13:29:58;2.85;;;1.70;;
23561;SDS011;11959;49.418;8.728;2023-02-12T13:32:32;4.25;;;1.98;;
23561;SDS011;11959;49.418;8.728;2023-02-12T13:35:05;2.45;;;1.63;;
23561;SDS011;11959;49.418;8.728;2023-02-12T13:40:06;3.15;;;2.05;;
23561;SDS011;11959;49.418;8.728;2023-02-12T13:54:16;3.33;;;1.95;;
23561;SDS011;11959;49.418;8.728;2023-02-12T13:57:07;4.50;;;2.30;;
23561;SDS011;11959;49.418;8.728;2023-02-12T13:59:38;2.22;;;1.73;;
23561;SDS011;11959;49.418;8.728;2023-02-12T14:05:16;3.30;;;1.60;;
23561;SDS011;11959;49.418;8.728;2023-02-12T14:07:46;2.60;;;1.63;;
23561;SDS011;11959;49.418;8.728;2023-02-12T14:11:01;2.67;;;1.77;;
23561;SDS011;11959;49.418;8.728;2023-02-12T14:13:09;2.70;;;1.73;;
23561;SDS011;11959;49.418;8.728;2023-02-12T14:15:40;3.78;;;2.10;;
23561;SDS011;11959;49.418;8.728;2023-02-12T14:23:36;2.25;;;1.52;;
23561;SDS011;11959;49.418;8.728;2023-02-12T14:26:07;3.17;;;1.77;;
23561;SDS011;11959;49.418;8.728;2023-02-12T14:33:41;2.88;;;2.08;;
23561;SDS011;11959;49.418;8.728;2023-02-12T14:36:12;3.47;;;1.98;;
23561;SDS011;11959;49.418;8.728;2023-02-12T14:49:18;3.30;;;1.75;;
23561;SDS011;11959;49.418;8.728;2023-02-12T14:51:53;2.85;;;1.70;;
23561;SDS011;11959;49.418;8.728;2023-02-12T14:57:08;3.65;;;1.92;;
23561;SDS011;11959;49.418;8.728;2023-02-12T14:59:44;2.45;;;1.63;;
23561;SDS011;11959;49.418;8.728;2023-02-12T15:02:23;3.70;;;1.70;;
23561;SDS011;11959;49.418;8.728;2023-02-12T15:04:55;3.42;;;1.80;;
23561;SDS011;11959;49.418;8.728;2023-02-12T15:07:28;2.70;;;1.90;;
23561;SDS011;11959;49.418;8.728;2023-02-12T15:10:18;3.63;;;2.15;;
23561;SDS011;11959;49.418;8.728;2023-02-12T15:16:05;3.60;;;1.90;;
23561;SDS011;11959;49.418;8.728;2023-02-12T15:23:46;3.78;;;2.13;;
23561;SDS011;11959;49.418;8.728;2023-02-12T15:26:21;2.65;;;2.00;;
23561;SDS011;11959;49.418;8.728;2023-02-12T15:28:50;3.85;;;2.28;;
23561;SDS011;11959;49.418;8.728;2023-02-12T15:31:19;3.80;;;2.30;;
23561;SDS011;11959;49.418;8.728;2023-02-12T15:33:50;5.35;;;2.58;;
23561;SDS011;11959;49.418;8.728;2023-02-12T15:36:20;3.72;;;2.38;;
23561;SDS011;11959;49.418;8.728;2023-02-12T15:38:55;3.72;;;2.40;;
23561;SDS011;11959;49.418;8.728;2023-02-12T15:41:27;5.22;;;2.15;;
23561;SDS011;11959;49.418;8.728;2023-02-12T15:43:59;4.72;;;2.55;;
23561;SDS011;11959;49.418;8.728;2023-02-12T15:46:26;4.18;;;2.47;;
23561;SDS011;11959;49.418;8.728;2023-02-12T15:48:52;4.03;;;2.35;;
23561;SDS011;11959;49.418;8.728;2023-02-12T15:51:34;4.07;;;2.30;;
23561;SDS011;11959;49.418;8.728;2023-02-12T15:54:05;5.55;;;2.90;;
23561;SDS011;11959;49.418;8.728;2023-02-12T15:56:32;5.00;;;2.72;;
23561;SDS011;11959;49.418;8.728;2023-02-12T15:59:00;4.13;;;2.25;;
23561;SDS011;11959;49.418;8.728;2023-02-12T16:01:27;4.60;;;2.58;;
23561;SDS011;11959;49.418;8.728;2023-02-12T16:03:56;4.82;;;2.42;;
23561;SDS011;11959;49.418;8.728;2023-02-12T16:06:24;4.65;;;2.55;;
23561;SDS011;11959;49.418;8.728;2023-02-12T16:08:55;5.05;;;2.22;;
23561;SDS011;11959;49.418;8.728;2023-02-12T16:11:32;5.00;;;2.38;;
23561;SDS011;11959;49.418;8.728;2023-02-12T16:14:00;4.25;;;2.97;;
23561;SDS011;11959;49.418;8.728;2023-02-12T16:16:28;3.83;;;2.60;;
23561;SDS011;11959;49.418;8.728;2023-02-12T16:19:04;5.78;;;2.63;;
23561;SDS011;11959;49.418;8.728;2023-02-12T16:21:32;5.25;;;3.10;;
23561;SDS011;11959;49.418;8.728;2023-02-12T16:24:01;6.10;;;3.65;;
23561;SDS011;11959;49.418;8.728;2023-02-12T16:26:27;10.00;;;5.22;;
23561;SDS011;11959;49.418;8.728;2023-02-12T16:28:54;9.35;;;5.03;;
23561;SDS011;11959;49.418;8.728;2023-02-12T16:31:21;8.88;;;4.82;;
23561;SDS011;11959;49.418;8.728;2023-02-12T16:33:52;12.40;;;6.25;;
23561;SDS011;11959;49.418;8.728;2023-02-12T16:41:49;10.85;;;5.43;;
23561;SDS011;11959;49.418;8.728;2023-02-12T16:44:20;10.45;;;5.20;;
23561;SDS011;11959;49.418;8.728;2023-02-12T16:46:50;8.85;;;5.40;;
23561;SDS011;11959;49.418;8.728;2023-02-12T16:49:20;14.35;;;7.55;;
23561;SDS011;11959;49.418;8.728;2023-02-12T16:51:47;13.90;;;9.40;;
23561;SDS011;11959;49.418;8.728;2023-02-12T16:56:54;21.10;;;18.08;;
23561;SDS011;11959;49.418;8.728;2023-02-12T16:59:20;26.45;;;22.33;;
23561;SDS011;11959;49.418;8.728;2023-02-12T17:01:56;19.95;;;17.80;;
23561;SDS011;11959;49.418;8.728;2023-02-12T17:04:24;10.95;;;8.35;;
23561;SDS011;11959;49.418;8.728;2023-02-12T17:06:50;8.68;;;7.15;;
23561;SDS011;11959;49.418;8.728;2023-02-12T17:09:16;8.77;;;7.88;;
23561;SDS011;11959;49.418;8.728;2023-02-12T17:11:41;56.85;;;43.08;;
23561;SDS011;11959;49.418;8.728;2023-02-12T17:14:08;11.00;;;8.43;;
23561;SDS011;11959;49.418;8.728;2023-02-12T17:16:39;9.18;;;6.20;;
23561;SDS011;11959;49.418;8.728;2023-02-12T17:19:04;8.20;;;6.07;;
23561;SDS011;11959;49.418;8.728;2023-02-12T17:21:31;7.90;;;5.60;;
23561;SDS011;11959;49.418;8.728;2023-02-12T17:24:02;14.52;;;9.20;;
23561;SDS011;11959;49.418;8.728;2023-02-12T17:26:29;30.55;;;18.48;;
23561;SDS011;11959;49.418;8.728;2023-02-12T17:28:54;16.63;;;11.05;;
23561;SDS011;11959;49.418;8.728;2023-02-12T17:31:29;12.43;;;7.53;;
23561;SDS011;11959;49.418;8.728;2023-02-12T17:33:56;8.52;;;6.72;;
23561;SDS011;11959;49.418;8.728;2023-02-12T17:36:22;8.30;;;6.25;;
23561;SDS011;11959;49.418;8.728;2023-02-12T17:38:48;10.05;;;7.43;;
23561;SDS011;11959;49.418;8.728;2023-02-12T17:41:15;9.98;;;6.95;;
23561;SDS011;11959;49.418;8.728;2023-02-12T17:43:41;14.75;;;10.18;;
23561;SDS011;11959;49.418;8.728;2023-02-12T17:46:08;10.30;;;7.00;;
23561;SDS011;11959;49.418;8.728;2023-02-12T17:48:34;31.48;;;21.10;;
23561;SDS011;11959;49.418;8.728;2023-02-12T17:51:00;55.08;;;37.13;;
23561;SDS011;11959;49.418;8.728;2023-02-12T17:53:26;13.93;;;9.43;;
23561;SDS011;11959;49.418;8.728;2023-02-12T17:55:52;13.05;;;9.68;;
23561;SDS011;11959;49.418;8.728;2023-02-12T17:58:17;10.65;;;7.35;;
23561;SDS011;11959;49.418;8.728;2023-02-12T18:00:43;52.28;;;33.38;;
23561;SDS011;11959;49.418;8.728;2023-02-12T18:03:09;16.55;;;12.35;;